Time;durP1;ratioP1;P1;durP2;ratioP2;P2;SDS_P1;SDS_P2;PMS_P1;PMS_P2;Temp;Humidity;BMP_temperature;BMP_pressure;BME280_temperature;BME280_humidity;BME280_pressure;Samples;Min_cycle;Max_cycle;Signal;HPM_P1;HPM_P2
2020/12/23 09:04:05;;;;;;;;;;;;;;;;;;5109620;27;19916;-45
2020/12/23 09:06:31;;;;;;;;;;;;;;;;;;5109672;28;19916;-61
2020/12/23 09:50:21;;;;;;;;;;;;;;;;;;5151176;27;20014;-63
2020/12/23 09:52:47;;;;;;;;;;;;;;;;;;5149618;27;19918;-60
2020/12/23 09:55:13;;;;;;;;;;;;;;;;;;5150688;27;19907;-61
2020/12/23 09:57:39;;;;;;;;;;;;;;;;;;5131905;27;19907;-61
2020/12/23 10:00:05;;;;;;;;;;;;;;;;;;5148617;27;19907;-60
2020/12/23 10:02:31;;;;;;;;;;;;;;;;;;5148006;27;19990;-60
2020/12/23 10:04:57;;;;;;;;;;;;;;;;;;5149297;27;20045;-60
2020/12/23 10:07:23;;;;;;;;;;;;;;;;;;5149509;27;19907;-60
2020/12/23 10:09:49;;;;;;;;;;;;;;;;;;5149242;27;19968;-61
2020/12/23 10:12:18;;;;;;;;;;;;;;;;;;5149064;27;19938;-62
2020/12/23 10:14:44;;;;;;;;;;;;;;;;;;5149229;27;19907;-61
2020/12/23 10:17:10;;;;;;;;;;;;;;;;;;5149136;27;20009;-59
2020/12/23 10:19:37;;;;;;;;;;;;;;;;;;5149045;27;19907;-59
2020/12/23 10:22:03;;;;;;;;;;;;;;;;;;5130210;27;19908;-59
2020/12/23 10:24:29;;;;;;;;;;;;;;;;;;5149496;27;19914;-60
2020/12/23 10:26:55;;;;;;;;;;;;;;;;;;5150196;27;20375;-59
2020/12/23 10:29:21;;;;;;;;;;;;;;;;;;5150496;27;19915;-59
2020/12/23 10:31:47;;;;;;;;;;;;;;;;;;5150498;27;19914;-60
2020/12/23 10:34:13;;;;;;;;;;;;;;;;;;5150678;27;19907;-60
2020/12/23 10:36:39;;;;;;;;;;;;;;;;;;5150255;27;19941;-60
2020/12/23 10:39:05;;;;;;;;;;;;;;;;;;5150393;27;19907;-61
2020/12/23 10:41:31;;;;;;;;;;;;;;;;;;5150530;27;20279;-62
2020/12/23 10:43:57;;;;;;;;;;;;;;;;;;5131520;27;19947;-60
2020/12/23 10:46:23;;;;;;;;;;;;;;;;;;5132020;27;20355;-60
2020/12/23 10:48:49;;;;;;;;;;;;;;;;;;5150360;27;19972;-59
2020/12/23 10:51:15;;;;;;;;;;;;;;;;;;5150104;27;19907;-60
2020/12/23 10:53:41;;;;;;;;;;;;;;;;;;5131022;27;19907;-60
2020/12/23 10:56:07;;;;;;;;;;;;;;;;;;5148037;27;20374;-60
2020/12/23 10:58:33;;;;;;;;;;;;;;;;;;5129414;27;20351;-60
2020/12/23 11:00:59;;;;;;;;;;;;;;;;;;5138387;27;19908;-59
2020/12/23 11:03:25;;;;;;;;;;;;;;;;;;5134253;27;19907;-60
2020/12/23 11:05:51;;;;;;;;;;;;;;;;;;5134157;27;20496;-60
2020/12/23 11:08:19;;;;;;;;;;;;;;;;;;5117495;27;19918;-60
2020/12/23 11:10:45;;;;;;;;;;;;;;;;;;5135395;27;19911;-60
2020/12/23 11:13:11;;;;;;;;;;;;;;;;;;5133879;27;19912;-60
2020/12/23 11:15:37;;;;;;;;;;;;;;;;;;5134120;27;19953;-61
2020/12/23 11:18:03;;;;;;;;;;;;;;;;;;5134281;27;20410;-60
2020/12/23 11:20:29;;;;;;;;;;;;;;;;;;5108796;27;19908;-59
2020/12/23 11:22:55;;;;;;;;;;;;;;;;;;5113471;28;19915;-60
2020/12/23 11:25:21;;;;;;;;;;;;;;;;;;5101551;27;20422;-60
2020/12/23 11:27:46;;;;;;;;;;;;;;;;;;5134976;27;19915;-59
2020/12/23 11:30:13;;;;;;;;;;;;;;;;;;5123442;27;19916;-60
2020/12/23 11:32:39;;;;;;;;;;;;;;;;;;5114644;27;19930;-61
2020/12/23 11:35:05;;;;;;;;;;;;;;;;;;5115965;27;19952;-63
2020/12/23 11:37:31;;;;;;;;;;;;;;;;;;5114756;28;19951;-59
2020/12/23 11:39:57;;;;;;;;;;;;;;;;;;5114559;28;19915;-60
2020/12/23 11:42:23;;;;;;;;;;;;;;;;;;5114676;28;19908;-60
2020/12/23 11:44:50;;;;;;;;;;;;;;;;;;5114557;28;19980;-60
2020/12/23 11:47:16;;;;;;;;;;;;;;;;;;5088059;27;19916;-62
2020/12/23 11:49:42;;;;;;;;;;;;;;;;;;5088783;27;19924;-61
2020/12/23 11:52:08;;;;;;;;;;;;;;;;;;5134981;27;19908;-63
2020/12/23 11:54:34;;;;;;;;;;;;;;;;;;5132767;27;19912;-62
2020/12/23 11:57:00;;;;;;;;;;;;;;;;;;5133889;27;19990;-62
2020/12/23 11:59:26;;;;;;;;;;;;;;;;;;5133681;27;19907;-62
2020/12/23 12:01:52;;;;;;;;;;;;;;;;;;5117248;27;19915;-61
2020/12/23 12:04:18;;;;;;;;;;;;;;;;;;5109015;27;19977;-61
2020/12/23 12:06:44;;;;;;;;;;;;;;;;;;5100734;27;19954;-61
2020/12/23 12:09:10;;;;;;;;;;;;;;;;;;5094515;28;19920;-62
2020/12/23 12:11:36;;;;;;;;;;;;;;;;;;5112048;28;20000;-62
2020/12/23 12:14:02;;;;;;;;;;;;;;;;;;5113625;28;20304;-62
2020/12/23 12:16:28;;;;;;;;;;;;;;;;;;5112976;28;20367;-62
2020/12/23 12:18:54;;;;;;;;;;;;;;;;;;5113110;28;19908;-63
2020/12/23 12:21:20;;;;;;;;;;;;;;;;;;5113945;28;19919;-62
2020/12/23 12:23:46;;;;;;;;;;;;;;;;;;5112980;28;19986;-63
2020/12/23 12:26:12;;;;;;;;;;;;;;;;;;5112613;28;19943;-63
2020/12/23 12:28:38;;;;;;;;;;;;;;;;;;5103655;28;20370;-62
2020/12/23 12:31:04;;;;;;;;;;;;;;;;;;5117717;27;19907;-63
2020/12/23 12:33:30;;;;;;;;;;;;;;;;;;5112762;27;19911;-62
2020/12/23 12:35:56;;;;;;;;;;;;;;;;;;5112727;28;19908;-62
2020/12/23 12:38:22;;;;;;;;;;;;;;;;;;5112786;28;19908;-62
2020/12/23 12:40:48;;;;;;;;;;;;;;;;;;5112430;28;20048;-62
2020/12/23 12:43:14;;;;;;;;;;;;;;;;;;5112828;27;19945;-63
2020/12/23 12:45:40;;;;;;;;;;;;;;;;;;5113414;28;19912;-63
2020/12/23 12:48:06;;;;;;;;;;;;;;;;;;5113704;28;19908;-63
2020/12/23 12:50:32;;;;;;;;;;;;;;;;;;5113156;28;20306;-64
2020/12/23 12:52:58;;;;;;;;;;;;;;;;;;5095508;28;19933;-63
2020/12/23 12:55:24;;;;;;;;;;;;;;;;;;5113520;28;19926;-62
2020/12/23 12:57:50;;;;;;;;;;;;;;;;;;5109505;28;19912;-62
2020/12/23 13:00:16;;;;;;;;;;;;;;;;;;5094949;27;20372;-62
2020/12/23 13:02:42;;;;;;;;;;;;;;;;;;5113205;28;20249;-62
2020/12/23 13:05:08;;;;;;;;;;;;;;;;;;5112452;28;20571;-62
2020/12/23 13:07:34;;;;;;;;;;;;;;;;;;5095377;28;19914;-62
2020/12/23 13:10:00;;;;;;;;;;;;;;;;;;5113474;28;19975;-62
2020/12/23 13:12:26;;;;;;;;;;;;;;;;;;5094663;28;19907;-63
2020/12/23 13:14:52;;;;;;;;;;;;;;;;;;5113339;28;19919;-63
2020/12/23 13:17:18;;;;;;;;;;;;;;;;;;5113419;28;19918;-64
2020/12/23 13:19:44;;;;;;;;;;;;;;;;;;5111561;28;19908;-64
2020/12/23 13:22:10;;;;;;;;;;;;;;;;;;5112107;28;19912;-64
2020/12/23 13:24:35;;;;;;;;;;;;;;;;;;5112259;28;20379;-64
2020/12/23 13:27:01;;;;;;;;;;;;;;;;;;5113059;28;19908;-64
2020/12/23 13:29:27;;;;;;;;;;;;;;;;;;5113113;28;20394;-62
2020/12/23 13:31:54;;;;;;;;;;;;;;;;;;5094994;28;19907;-63
2020/12/23 13:34:20;;;;;;;;;;;;;;;;;;5112571;28;20290;-64
2020/12/23 13:36:46;;;;;;;;;;;;;;;;;;5113057;28;20591;-64
2020/12/23 13:39:12;;;;;;;;;;;;;;;;;;5112701;28;19995;-63
2020/12/23 13:41:38;;;;;;;;;;;;;;;;;;5094769;28;19946;-63
2020/12/23 13:44:04;;;;;;;;;;;;;;;;;;5113024;28;19912;-63
2020/12/23 13:46:30;;;;;;;;;;;;;;;;;;5112562;28;19912;-63
2020/12/23 13:48:56;;;;;;;;;;;;;;;;;;5104232;28;20009;-63
2020/12/23 13:51:22;;;;;;;;;;;;;;;;;;5092484;28;19916;-63
2020/12/23 13:53:48;;;;;;;;;;;;;;;;;;5091179;28;20007;-64
2020/12/23 13:56:13;;;;;;;;;;;;;;;;;;5092593;28;20296;-64
2020/12/23 13:58:39;;;;;;;;;;;;;;;;;;5092478;28;19999;-64
2020/12/23 14:01:06;;;;;;;;;;;;;;;;;;5074274;28;20280;-63
2020/12/23 14:03:32;;;;;;;;;;;;;;;;;;5092478;28;20277;-63
2020/12/23 14:05:58;;;;;;;;;;;;;;;;;;5092490;28;19916;-63
2020/12/23 14:08:24;;;;;;;;;;;;;;;;;;5092206;28;19916;-63
2020/12/23 14:10:50;;;;;;;;;;;;;;;;;;5092593;28;20380;-63
2020/12/23 14:13:16;;;;;;;;;;;;;;;;;;5092440;28;19954;-64
2020/12/23 14:15:42;;;;;;;;;;;;;;;;;;5092126;28;19916;-65
2020/12/23 14:18:08;;;;;;;;;;;;;;;;;;5092468;28;20287;-64
2020/12/23 14:20:34;;;;;;;;;;;;;;;;;;5092492;28;19953;-64
2020/12/23 14:23:00;;;;;;;;;;;;;;;;;;5073925;28;19912;-64
2020/12/23 14:25:26;;;;;;;;;;;;;;;;;;5092426;28;19912;-64
2020/12/23 14:27:52;;;;;;;;;;;;;;;;;;5092661;28;19908;-64
2020/12/23 14:30:18;;;;;;;;;;;;;;;;;;5091932;28;20272;-64
2020/12/23 14:32:43;;;;;;;;;;;;;;;;;;5091872;28;19916;-64
2020/12/23 14:35:09;;;;;;;;;;;;;;;;;;5090994;28;20443;-64
2020/12/23 14:37:35;;;;;;;;;;;;;;;;;;5093717;28;19908;-64
2020/12/23 14:40:01;;;;;;;;;;;;;;;;;;5075804;28;19994;-64
2020/12/23 14:42:27;;;;;;;;;;;;;;;;;;5094397;28;20285;-63
2020/12/23 14:44:53;;;;;;;;;;;;;;;;;;5078007;28;19908;-62
2020/12/23 14:47:19;;;;;;;;;;;;;;;;;;5094492;28;19912;-64
2020/12/23 14:49:45;;;;;;;;;;;;;;;;;;5093916;28;20881;-64
2020/12/23 14:52:11;;;;;;;;;;;;;;;;;;5077334;28;19908;-64
2020/12/23 14:54:37;;;;;;;;;;;;;;;;;;5095274;28;19908;-64
2020/12/23 14:57:03;;;;;;;;;;;;;;;;;;5095181;28;19916;-64
2020/12/23 14:59:29;;;;;;;;;;;;;;;;;;5077498;28;20558;-62
2020/12/23 15:01:55;;;;;;;;;;;;;;;;;;5095720;28;19915;-63
2020/12/23 15:04:21;;;;;;;;;;;;;;;;;;5095372;28;19908;-62
2020/12/23 15:06:47;;;;;;;;;;;;;;;;;;5095734;28;19985;-63
2020/12/23 15:09:14;;;;;;;;;;;;;;;;;;5095741;28;19952;-63
2020/12/23 15:11:39;;;;;;;;;;;;;;;;;;5077044;28;19912;-64
2020/12/23 15:14:06;;;;;;;;;;;;;;;;;;5077359;28;19962;-64
2020/12/23 15:16:32;;;;;;;;;;;;;;;;;;5093868;28;20368;-64
2020/12/23 15:18:57;;;;;;;;;;;;;;;;;;5093617;28;20375;-64
2020/12/23 15:21:23;;;;;;;;;;;;;;;;;;5094382;28;19908;-64
2020/12/23 15:23:49;;;;;;;;;;;;;;;;;;5075804;28;19911;-64
2020/12/23 15:26:15;;;;;;;;;;;;;;;;;;5093252;28;19915;-64
2020/12/23 15:28:41;;;;;;;;;;;;;;;;;;5093969;28;19935;-64
2020/12/23 15:31:07;;;;;;;;;;;;;;;;;;5094829;28;19908;-64
2020/12/23 15:33:33;;;;;;;;;;;;;;;;;;5094758;28;20284;-64
2020/12/23 15:35:59;;;;;;;;;;;;;;;;;;5095095;28;19908;-64
2020/12/23 15:38:25;;;;;;;;;;;;;;;;;;5094990;28;20424;-64
2020/12/23 15:40:52;;;;;;;;;;;;;;;;;;5094703;28;19908;-64
2020/12/23 15:43:18;;;;;;;;;;;;;;;;;;5094913;28;20372;-64
2020/12/23 15:45:44;;;;;;;;;;;;;;;;;;5094404;28;20017;-63
2020/12/23 15:48:10;;;;;;;;;;;;;;;;;;5094681;28;19935;-63
2020/12/23 15:50:36;;;;;;;;;;;;;;;;;;5095190;28;19909;-63
2020/12/23 15:53:02;;;;;;;;;;;;;;;;;;5094393;28;19944;-64
2020/12/23 15:55:28;;;;;;;;;;;;;;;;;;5094250;28;19916;-62
2020/12/23 15:57:54;;;;;;;;;;;;;;;;;;5076416;28;20465;-64
2020/12/23 16:00:20;;;;;;;;;;;;;;;;;;5075977;28;19912;-63
2020/12/23 16:02:46;;;;;;;;;;;;;;;;;;5094652;28;20318;-63
2020/12/23 16:05:12;;;;;;;;;;;;;;;;;;5076461;28;20003;-64
2020/12/23 16:07:38;;;;;;;;;;;;;;;;;;5094121;28;19908;-62
2020/12/23 16:10:04;;;;;;;;;;;;;;;;;;5094614;28;20016;-63
2020/12/23 16:12:32;;;;;;;;;;;;;;;;;;5094322;28;19912;-61
2020/12/23 16:14:58;;;;;;;;;;;;;;;;;;5075755;28;19908;-63
2020/12/23 16:17:24;;;;;;;;;;;;;;;;;;5093042;28;19908;-64
2020/12/23 16:19:50;;;;;;;;;;;;;;;;;;5092242;28;19918;-64
2020/12/23 16:22:17;;;;;;;;;;;;;;;;;;5093321;28;19908;-63
2020/12/23 16:24:43;;;;;;;;;;;;;;;;;;5094228;28;19908;-64
2020/12/23 16:27:09;;;;;;;;;;;;;;;;;;5094187;28;20007;-63
2020/12/23 16:29:35;;;;;;;;;;;;;;;;;;5093767;28;19922;-62
2020/12/23 16:32:02;;;;;;;;;;;;;;;;;;5094169;28;20006;-63
2020/12/23 16:34:28;;;;;;;;;;;;;;;;;;5094024;28;19915;-63
2020/12/23 16:37:00;;;;;;;;;;;;;;;;;;5093467;28;19908;-62
2020/12/23 16:39:26;;;;;;;;;;;;;;;;;;5093779;28;19908;-63
2020/12/23 16:41:52;;;;;;;;;;;;;;;;;;5075668;28;19909;-64
2020/12/23 16:44:18;;;;;;;;;;;;;;;;;;5093392;28;19908;-64
2020/12/23 16:46:44;;;;;;;;;;;;;;;;;;5093713;28;19912;-64
2020/12/23 16:49:10;;;;;;;;;;;;;;;;;;5093281;28;19985;-64
2020/12/23 16:51:36;;;;;;;;;;;;;;;;;;5093702;28;19908;-63
2020/12/23 16:54:02;;;;;;;;;;;;;;;;;;5093517;28;19968;-63
2020/12/23 16:56:28;;;;;;;;;;;;;;;;;;5093169;28;20333;-63
2020/12/23 16:58:54;;;;;;;;;;;;;;;;;;5092981;28;19915;-63
2020/12/23 17:01:20;;;;;;;;;;;;;;;;;;5075259;28;19912;-63
2020/12/23 17:03:47;;;;;;;;;;;;;;;;;;5074866;28;19951;-63
2020/12/23 17:06:13;;;;;;;;;;;;;;;;;;5093435;28;19908;-63
2020/12/23 17:08:39;;;;;;;;;;;;;;;;;;5093539;28;19935;-62
2020/12/23 17:11:05;;;;;;;;;;;;;;;;;;5074941;28;19916;-62
2020/12/23 17:13:31;;;;;;;;;;;;;;;;;;5075022;28;19915;-65
2020/12/23 17:15:57;;;;;;;;;;;;;;;;;;5091277;28;19915;-64
2020/12/23 17:18:23;;;;;;;;;;;;;;;;;;5072726;28;20266;-63
2020/12/23 17:20:49;;;;;;;;;;;;;;;;;;5092277;28;19948;-64
2020/12/23 17:23:15;;;;;;;;;;;;;;;;;;5092845;28;20339;-63
2020/12/23 17:25:41;;;;;;;;;;;;;;;;;;5074298;28;19908;-63
2020/12/23 17:28:07;;;;;;;;;;;;;;;;;;5074673;28;20311;-63
2020/12/23 17:30:33;;;;;;;;;;;;;;;;;;5074929;28;19915;-64
2020/12/23 17:32:59;;;;;;;;;;;;;;;;;;5092713;28;19909;-63
2020/12/23 17:35:25;;;;;;;;;;;;;;;;;;5093067;28;19915;-64
2020/12/23 17:37:51;;;;;;;;;;;;;;;;;;5092992;28;19908;-63
2020/12/23 17:40:17;;;;;;;;;;;;;;;;;;5092615;28;19908;-63
2020/12/23 17:42:43;;;;;;;;;;;;;;;;;;5092868;28;19908;-63
2020/12/23 17:45:09;;;;;;;;;;;;;;;;;;5092990;28;19909;-63
2020/12/23 17:47:35;;;;;;;;;;;;;;;;;;5092436;28;19993;-64
2020/12/23 17:50:01;;;;;;;;;;;;;;;;;;5092902;28;19920;-64
2020/12/23 17:52:27;;;;;;;;;;;;;;;;;;5092495;28;19908;-62
2020/12/23 17:54:53;;;;;;;;;;;;;;;;;;5074622;28;20258;-63
2020/12/23 17:57:19;;;;;;;;;;;;;;;;;;5074553;28;20429;-64
2020/12/23 17:59:45;;;;;;;;;;;;;;;;;;5092332;28;19980;-63
2020/12/23 18:02:10;;;;;;;;;;;;;;;;;;5092750;28;19908;-63
2020/12/23 18:04:37;;;;;;;;;;;;;;;;;;5093147;28;19944;-63
2020/12/23 18:07:03;;;;;;;;;;;;;;;;;;5092306;28;20416;-63
2020/12/23 18:09:29;;;;;;;;;;;;;;;;;;5074700;28;19916;-64
2020/12/23 18:11:55;;;;;;;;;;;;;;;;;;5096410;28;19931;-64
2020/12/23 18:14:21;;;;;;;;;;;;;;;;;;5096292;28;19911;-64
2020/12/23 18:16:47;;;;;;;;;;;;;;;;;;5096661;28;19947;-62
2020/12/23 18:19:13;;;;;;;;;;;;;;;;;;5096608;28;19908;-64
2020/12/23 18:21:39;;;;;;;;;;;;;;;;;;5096147;28;19968;-63
2020/12/23 18:24:05;;;;;;;;;;;;;;;;;;5096447;28;20404;-63
2020/12/23 18:26:31;;;;;;;;;;;;;;;;;;5096685;28;19970;-63
2020/12/23 18:28:58;;;;;;;;;;;;;;;;;;5095732;28;19942;-62
2020/12/23 18:31:24;;;;;;;;;;;;;;;;;;5096892;28;19912;-62
2020/12/23 18:33:50;;;;;;;;;;;;;;;;;;5096370;28;20001;-62
2020/12/23 18:36:16;;;;;;;;;;;;;;;;;;5095992;28;19961;-62
2020/12/23 18:38:42;;;;;;;;;;;;;;;;;;5096146;28;19908;-62
2020/12/23 18:41:08;;;;;;;;;;;;;;;;;;5096208;28;19978;-62
2020/12/23 18:43:34;;;;;;;;;;;;;;;;;;5077329;28;20371;-63
2020/12/23 18:46:00;;;;;;;;;;;;;;;;;;5096124;28;19922;-63
2020/12/23 18:48:26;;;;;;;;;;;;;;;;;;5095750;28;19912;-63
2020/12/23 18:50:52;;;;;;;;;;;;;;;;;;5095868;28;19908;-62
2020/12/23 18:53:18;;;;;;;;;;;;;;;;;;5095878;28;19908;-63
2020/12/23 18:55:44;;;;;;;;;;;;;;;;;;5095647;28;19931;-63
2020/12/23 18:58:10;;;;;;;;;;;;;;;;;;5077608;28;20363;-63
2020/12/23 19:00:36;;;;;;;;;;;;;;;;;;5095917;28;19912;-63
2020/12/23 19:03:02;;;;;;;;;;;;;;;;;;5095425;28;19908;-62
2020/12/23 19:05:28;;;;;;;;;;;;;;;;;;5077582;28;19915;-63
2020/12/23 19:07:55;;;;;;;;;;;;;;;;;;5095790;28;19908;-63
2020/12/23 19:10:21;;;;;;;;;;;;;;;;;;5095422;28;19916;-64
2020/12/23 19:12:47;;;;;;;;;;;;;;;;;;5095566;28;20407;-64
2020/12/23 19:15:13;;;;;;;;;;;;;;;;;;5077483;28;19953;-63
2020/12/23 19:17:39;;;;;;;;;;;;;;;;;;5095066;28;19920;-62
2020/12/23 19:20:06;;;;;;;;;;;;;;;;;;5095462;28;19908;-62
2020/12/23 19:22:32;;;;;;;;;;;;;;;;;;5094835;28;19908;-63
2020/12/23 19:24:58;;;;;;;;;;;;;;;;;;5095061;28;19915;-62
2020/12/23 19:27:24;;;;;;;;;;;;;;;;;;5095385;28;19915;-63
2020/12/23 19:29:50;;;;;;;;;;;;;;;;;;5077263;28;19920;-62
2020/12/23 19:32:16;;;;;;;;;;;;;;;;;;5094996;28;19908;-64
2020/12/23 19:34:42;;;;;;;;;;;;;;;;;;5095170;28;20287;-64
2020/12/23 19:37:08;;;;;;;;;;;;;;;;;;5095138;28;19908;-64
2020/12/23 19:39:34;;;;;;;;;;;;;;;;;;5094793;28;20269;-64
2020/12/23 19:42:00;;;;;;;;;;;;;;;;;;5095086;28;20372;-65
2020/12/23 19:44:26;;;;;;;;;;;;;;;;;;5094855;28;19915;-63
2020/12/23 19:46:52;;;;;;;;;;;;;;;;;;5094684;28;19931;-62
2020/12/23 19:49:18;;;;;;;;;;;;;;;;;;5094885;28;19920;-63
2020/12/23 19:51:44;;;;;;;;;;;;;;;;;;5095087;28;19953;-63
2020/12/23 19:54:10;;;;;;;;;;;;;;;;;;5094533;28;20014;-62
2020/12/23 19:56:36;;;;;;;;;;;;;;;;;;5094725;28;19908;-62
2020/12/23 19:59:02;;;;;;;;;;;;;;;;;;5094410;28;19943;-63
2020/12/23 20:01:28;;;;;;;;;;;;;;;;;;5076624;28;20261;-63
2020/12/23 20:03:54;;;;;;;;;;;;;;;;;;5076429;28;19909;-62
2020/12/23 20:06:22;;;;;;;;;;;;;;;;;;5094275;28;19912;-64
2020/12/23 20:08:48;;;;;;;;;;;;;;;;;;5094633;28;20326;-64
2020/12/23 20:11:14;;;;;;;;;;;;;;;;;;5094721;28;19908;-64
2020/12/23 20:13:40;;;;;;;;;;;;;;;;;;5094157;28;19916;-61
2020/12/23 20:16:06;;;;;;;;;;;;;;;;;;5094332;28;19912;-65
2020/12/23 20:18:32;;;;;;;;;;;;;;;;;;5094390;28;19908;-63
2020/12/23 20:20:58;;;;;;;;;;;;;;;;;;5093981;28;20008;-63
2020/12/23 20:23:24;;;;;;;;;;;;;;;;;;5094291;28;19954;-64
2020/12/23 20:25:51;;;;;;;;;;;;;;;;;;5092669;28;19908;-64
2020/12/23 20:28:17;;;;;;;;;;;;;;;;;;5093634;28;19915;-63
2020/12/23 20:30:42;;;;;;;;;;;;;;;;;;5093312;28;19912;-64
2020/12/23 20:33:08;;;;;;;;;;;;;;;;;;5091425;28;19919;-64
2020/12/23 20:35:36;;;;;;;;;;;;;;;;;;5092013;28;20262;-63
2020/12/23 20:38:02;;;;;;;;;;;;;;;;;;5093430;28;19915;-64
2020/12/23 20:40:28;;;;;;;;;;;;;;;;;;5093627;28;19908;-63
2020/12/23 20:42:54;;;;;;;;;;;;;;;;;;5093285;28;19932;-63
2020/12/23 20:45:20;;;;;;;;;;;;;;;;;;5093488;28;19919;-64
2020/12/23 20:47:46;;;;;;;;;;;;;;;;;;5075662;28;19908;-64
2020/12/23 20:50:12;;;;;;;;;;;;;;;;;;5093297;28;19920;-64
2020/12/23 20:52:38;;;;;;;;;;;;;;;;;;5093952;28;19908;-63
2020/12/23 20:55:04;;;;;;;;;;;;;;;;;;5075452;28;19953;-65
2020/12/23 20:57:30;;;;;;;;;;;;;;;;;;5093447;28;19912;-64
2020/12/23 20:59:56;;;;;;;;;;;;;;;;;;5093558;28;19930;-64
2020/12/23 21:02:22;;;;;;;;;;;;;;;;;;5093044;28;19942;-64
2020/12/23 21:04:49;;;;;;;;;;;;;;;;;;5093508;28;19947;-66
2020/12/23 21:07:15;;;;;;;;;;;;;;;;;;5093518;28;19908;-63
2020/12/23 21:09:41;;;;;;;;;;;;;;;;;;5092922;28;20273;-64
2020/12/23 21:12:07;;;;;;;;;;;;;;;;;;5093557;28;19926;-65
2020/12/23 21:14:33;;;;;;;;;;;;;;;;;;5075316;28;19908;-65
2020/12/23 21:16:59;;;;;;;;;;;;;;;;;;5074736;28;19961;-63
2020/12/23 21:19:25;;;;;;;;;;;;;;;;;;5093255;28;19995;-64
2020/12/23 21:21:51;;;;;;;;;;;;;;;;;;5093244;28;19908;-64
2020/12/23 21:24:17;;;;;;;;;;;;;;;;;;5092821;28;20382;-65
2020/12/23 21:26:43;;;;;;;;;;;;;;;;;;5093050;28;19908;-64
2020/12/23 21:29:09;;;;;;;;;;;;;;;;;;5093028;28;19923;-65
2020/12/23 21:31:35;;;;;;;;;;;;;;;;;;5092933;28;19915;-63
2020/12/23 21:34:02;;;;;;;;;;;;;;;;;;5093200;28;19908;-63
2020/12/23 21:36:28;;;;;;;;;;;;;;;;;;5092911;28;19912;-63
2020/12/23 21:38:54;;;;;;;;;;;;;;;;;;5092567;28;20375;-64
2020/12/23 21:41:20;;;;;;;;;;;;;;;;;;5093091;28;19934;-63
2020/12/23 21:43:46;;;;;;;;;;;;;;;;;;5092746;28;20336;-63
2020/12/23 21:46:12;;;;;;;;;;;;;;;;;;5092608;28;19915;-63
2020/12/23 21:48:38;;;;;;;;;;;;;;;;;;5092495;28;19947;-63
2020/12/23 21:51:04;;;;;;;;;;;;;;;;;;5093009;28;20360;-63
2020/12/23 21:53:30;;;;;;;;;;;;;;;;;;5074511;28;19963;-63
2020/12/23 21:55:56;;;;;;;;;;;;;;;;;;5092772;28;19915;-63
2020/12/23 21:58:22;;;;;;;;;;;;;;;;;;5074642;28;20326;-63
2020/12/23 22:00:48;;;;;;;;;;;;;;;;;;5092282;28;19912;-63
2020/12/23 22:03:14;;;;;;;;;;;;;;;;;;5074510;28;19908;-63
2020/12/23 22:05:39;;;;;;;;;;;;;;;;;;5092373;28;20292;-63
2020/12/23 22:08:05;;;;;;;;;;;;;;;;;;5092860;28;19958;-65
2020/12/23 22:10:31;;;;;;;;;;;;;;;;;;5092630;28;19916;-64
2020/12/23 22:12:57;;;;;;;;;;;;;;;;;;5092499;28;19908;-63
2020/12/23 22:15:23;;;;;;;;;;;;;;;;;;5092693;28;19908;-63
2020/12/23 22:17:49;;;;;;;;;;;;;;;;;;5074759;28;19977;-63
2020/12/23 22:20:15;;;;;;;;;;;;;;;;;;5092145;28;19961;-64
2020/12/23 22:22:41;;;;;;;;;;;;;;;;;;5074401;28;19931;-63
2020/12/23 22:25:07;;;;;;;;;;;;;;;;;;5092412;28;19928;-63
2020/12/23 22:27:33;;;;;;;;;;;;;;;;;;5091974;28;19915;-64
2020/12/23 22:29:59;;;;;;;;;;;;;;;;;;5092386;28;19956;-63
2020/12/23 22:32:25;;;;;;;;;;;;;;;;;;5092538;28;20302;-64
2020/12/23 22:34:51;;;;;;;;;;;;;;;;;;5091961;28;19908;-63
2020/12/23 22:37:17;;;;;;;;;;;;;;;;;;5092433;28;19951;-63
2020/12/23 22:39:43;;;;;;;;;;;;;;;;;;5092236;28;19912;-63
2020/12/23 22:42:09;;;;;;;;;;;;;;;;;;5091851;28;19912;-64
2020/12/23 22:44:35;;;;;;;;;;;;;;;;;;5092338;28;19908;-64
2020/12/23 22:47:02;;;;;;;;;;;;;;;;;;5092360;28;20002;-65
2020/12/23 22:49:28;;;;;;;;;;;;;;;;;;5083140;28;20344;-64
2020/12/23 22:51:54;;;;;;;;;;;;;;;;;;5091148;28;19908;-63
2020/12/23 22:54:20;;;;;;;;;;;;;;;;;;5092258;28;19918;-63
2020/12/23 22:56:46;;;;;;;;;;;;;;;;;;5093285;28;19908;-63
2020/12/23 22:59:12;;;;;;;;;;;;;;;;;;5095766;28;20295;-63
2020/12/23 23:01:38;;;;;;;;;;;;;;;;;;5095833;28;19912;-62
2020/12/23 23:04:04;;;;;;;;;;;;;;;;;;5095446;28;19908;-64
2020/12/23 23:06:30;;;;;;;;;;;;;;;;;;5095784;28;19912;-64
2020/12/23 23:08:56;;;;;;;;;;;;;;;;;;5095157;28;19965;-64
2020/12/23 23:11:22;;;;;;;;;;;;;;;;;;5094270;28;20000;-64
2020/12/23 23:13:48;;;;;;;;;;;;;;;;;;5095871;28;19916;-64
2020/12/23 23:16:14;;;;;;;;;;;;;;;;;;5095230;28;19915;-64
2020/12/23 23:18:39;;;;;;;;;;;;;;;;;;5095804;28;20287;-64
2020/12/23 23:21:06;;;;;;;;;;;;;;;;;;5094204;28;19954;-64
2020/12/23 23:23:32;;;;;;;;;;;;;;;;;;5093547;28;19999;-64
2020/12/23 23:25:57;;;;;;;;;;;;;;;;;;5095240;28;20003;-64
2020/12/23 23:28:23;;;;;;;;;;;;;;;;;;5095076;28;19908;-64
2020/12/23 23:30:49;;;;;;;;;;;;;;;;;;5094754;28;19912;-64
2020/12/23 23:33:15;;;;;;;;;;;;;;;;;;5095361;28;19908;-64
2020/12/23 23:35:41;;;;;;;;;;;;;;;;;;5095324;28;19908;-64
2020/12/23 23:38:07;;;;;;;;;;;;;;;;;;5094844;28;19916;-64
2020/12/23 23:40:33;;;;;;;;;;;;;;;;;;5095142;28;20034;-64
2020/12/23 23:42:59;;;;;;;;;;;;;;;;;;5094901;28;19943;-62
2020/12/23 23:45:25;;;;;;;;;;;;;;;;;;5094328;28;20386;-64
2020/12/23 23:47:51;;;;;;;;;;;;;;;;;;5094723;28;20003;-62
2020/12/23 23:50:17;;;;;;;;;;;;;;;;;;5094546;28;20042;-63
2020/12/23 23:52:43;;;;;;;;;;;;;;;;;;5094516;28;20382;-63
2020/12/23 23:55:09;;;;;;;;;;;;;;;;;;5095002;28;19915;-63
2020/12/23 23:57:35;;;;;;;;;;;;;;;;;;5076593;28;19939;-63
